createdAt,value
2023-01-26T00:00:30.569Z,66.55
2023-01-26T00:01:30.578Z,69.29
2023-01-26T00:02:30.560Z,67.03
2023-01-26T00:03:32.208Z,62.84
2023-01-26T00:04:30.544Z,65.74
2023-01-26T00:05:30.470Z,67.84
2023-01-26T00:06:30.478Z,69.45
2023-01-26T00:07:30.456Z,65.42
2023-01-26T00:08:30.416Z,60.42
2023-01-26T00:09:30.404Z,55.59
2023-01-26T00:10:30.378Z,64.78
2023-01-26T00:11:30.396Z,64.61
2023-01-26T00:12:30.338Z,71.22
2023-01-26T00:13:30.320Z,62.52
2023-01-26T00:14:30.296Z,65.10
2023-01-26T00:15:30.278Z,64.45
2023-01-26T00:16:30.285Z,61.71
2023-01-26T00:17:30.232Z,63.65
2023-01-26T00:18:30.213Z,66.06
2023-01-26T00:19:30.192Z,64.61
2023-01-26T00:20:30.171Z,61.55
2023-01-26T00:21:30.176Z,69.13
2023-01-26T00:22:30.138Z,63.00
2023-01-26T00:23:30.109Z,64.45
2023-01-26T00:24:30.105Z,64.29
2023-01-26T00:25:30.070Z,64.13
2023-01-26T00:26:30.072Z,61.55
2023-01-26T00:27:30.036Z,62.68
2023-01-26T00:28:30.016Z,64.29
2023-01-26T00:29:29.982Z,66.87
2023-01-26T00:30:29.974Z,69.45
2023-01-26T00:31:30.029Z,65.58
2023-01-26T00:32:29.927Z,64.94
2023-01-26T00:33:29.901Z,60.59
2023-01-26T00:34:29.884Z,67.51
2023-01-26T00:35:29.859Z,63.65
2023-01-26T00:36:29.869Z,65.74
2023-01-26T00:37:29.822Z,68.48
2023-01-26T00:38:29.797Z,62.36
2023-01-26T00:39:30.778Z,66.71
2023-01-26T00:40:29.758Z,68.80
2023-01-26T00:41:29.767Z,68.16
2023-01-26T00:42:29.721Z,68.00
2023-01-26T00:43:29.699Z,66.39
2023-01-26T00:44:29.672Z,65.58
2023-01-26T00:45:29.656Z,66.06
2023-01-26T00:46:29.690Z,67.19
2023-01-26T00:47:29.613Z,64.45
2023-01-26T00:48:29.600Z,68.00
2023-01-26T00:49:29.570Z,66.06
2023-01-26T00:50:29.552Z,67.03
2023-01-26T00:51:29.558Z,66.87
2023-01-26T00:52:29.511Z,68.16
2023-01-26T00:53:29.492Z,64.45
2023-01-26T00:54:29.483Z,63.16
2023-01-26T00:55:29.446Z,69.93
2023-01-26T00:56:29.453Z,68.48
2023-01-26T00:57:29.408Z,62.20
2023-01-26T00:58:29.386Z,64.45
2023-01-26T00:59:29.368Z,63.65
2023-01-26T01:00:29.417Z,66.06
2023-01-26T01:01:29.352Z,67.03
2023-01-26T01:02:30.303Z,67.35
2023-01-26T01:03:29.288Z,66.87
2023-01-26T01:04:29.262Z,68.80
2023-01-26T01:05:29.244Z,65.26
2023-01-26T01:06:29.249Z,65.74
2023-01-26T01:07:29.199Z,69.45
2023-01-26T01:08:29.188Z,58.49
2023-01-26T01:09:29.158Z,61.71
2023-01-26T01:10:29.141Z,69.29
2023-01-26T01:11:29.138Z,69.61
2023-01-26T01:12:29.118Z,68.80
2023-01-26T01:13:29.070Z,65.26
2023-01-26T01:14:29.047Z,60.10
2023-01-26T01:15:29.031Z,60.91
2023-01-26T01:16:29.096Z,67.03
2023-01-26T01:17:29.994Z,66.23
2023-01-26T01:18:28.975Z,64.78
2023-01-26T01:19:28.956Z,62.52
2023-01-26T01:20:28.933Z,68.48
2023-01-26T01:21:28.937Z,65.26
2023-01-26T01:22:28.898Z,69.93
2023-01-26T01:23:28.872Z,63.33
2023-01-26T01:24:28.850Z,65.58
2023-01-26T01:25:28.835Z,71.22
2023-01-26T01:26:28.830Z,58.33
2023-01-26T01:27:28.784Z,66.06
2023-01-26T01:28:28.765Z,67.03
2023-01-26T01:29:28.749Z,67.03
2023-01-26T01:30:28.716Z,67.68
2023-01-26T01:31:29.801Z,68.00
2023-01-26T01:32:28.704Z,65.58
2023-01-26T01:33:28.684Z,68.48
2023-01-26T01:34:28.645Z,65.26
2023-01-26T01:35:28.623Z,64.13
2023-01-26T01:36:28.607Z,67.03
2023-01-26T01:37:28.613Z,68.64
2023-01-26T01:38:28.561Z,67.19
2023-01-26T01:39:28.542Z,61.71
2023-01-26T01:40:28.517Z,65.42
2023-01-26T01:41:28.496Z,69.61
2023-01-26T01:42:28.512Z,66.71
2023-01-26T01:43:29.463Z,70.09
2023-01-26T01:44:28.438Z,64.78
2023-01-26T01:45:28.438Z,65.90
2023-01-26T01:46:28.430Z,66.71
2023-01-26T01:47:28.397Z,66.55
2023-01-26T01:48:28.354Z,69.13
2023-01-26T01:49:28.338Z,64.29
2023-01-26T01:50:28.326Z,63.97
2023-01-26T01:51:28.301Z,66.55
2023-01-26T01:52:28.303Z,66.71
2023-01-26T01:53:28.250Z,66.23
2023-01-26T01:54:28.230Z,66.71
2023-01-26T01:55:28.207Z,69.61
2023-01-26T01:56:28.187Z,69.77
2023-01-26T01:57:28.201Z,65.10
2023-01-26T01:58:28.148Z,62.04
2023-01-26T01:59:28.131Z,64.13
2023-01-26T02:00:28.107Z,62.36
2023-01-26T02:01:28.085Z,65.74
2023-01-26T02:02:28.091Z,69.13
2023-01-26T02:03:28.047Z,71.70
2023-01-26T02:04:28.022Z,66.71
2023-01-26T02:05:28.001Z,67.51
2023-01-26T02:06:27.987Z,63.49
2023-01-26T02:07:27.986Z,68.00
2023-01-26T02:08:27.936Z,63.33
2023-01-26T02:09:27.918Z,66.39
2023-01-26T02:10:27.895Z,68.64
2023-01-26T02:11:27.874Z,70.42
2023-01-26T02:12:27.880Z,67.68
2023-01-26T02:13:27.830Z,65.10
2023-01-26T02:14:27.816Z,72.03
2023-01-26T02:15:27.799Z,65.74
2023-01-26T02:16:27.820Z,68.64
2023-01-26T02:17:27.779Z,68.80
2023-01-26T02:18:27.731Z,68.32
2023-01-26T02:19:27.713Z,66.06
2023-01-26T02:20:27.688Z,66.87
2023-01-26T02:21:27.663Z,70.74
2023-01-26T02:22:27.674Z,69.13
2023-01-26T02:23:27.636Z,69.61
2023-01-26T02:24:27.601Z,70.25
2023-01-26T02:25:27.582Z,67.19
2023-01-26T02:26:27.571Z,67.51
2023-01-26T02:27:27.566Z,67.03
2023-01-26T02:28:27.525Z,70.58
2023-01-26T02:29:27.504Z,71.22
2023-01-26T02:30:27.481Z,70.90
2023-01-26T02:31:27.493Z,69.77
2023-01-26T02:32:27.464Z,70.25
2023-01-26T02:33:27.434Z,64.78
2023-01-26T02:34:27.401Z,66.06
2023-01-26T02:35:27.374Z,68.16
2023-01-26T02:36:27.355Z,69.13
2023-01-26T02:37:27.530Z,68.00
2023-01-26T02:38:27.312Z,71.54
2023-01-26T02:39:27.294Z,70.25
2023-01-26T02:40:27.277Z,71.54
2023-01-26T02:41:27.249Z,65.90
2023-01-26T02:42:27.254Z,66.71
2023-01-26T02:43:27.203Z,65.26
2023-01-26T02:44:27.180Z,68.32
2023-01-26T02:45:27.160Z,70.90
2023-01-26T02:46:27.196Z,66.71
2023-01-26T02:47:27.147Z,69.77
2023-01-26T02:48:27.099Z,69.13
2023-01-26T02:49:27.078Z,65.58
2023-01-26T02:50:27.060Z,64.78
2023-01-26T02:51:27.037Z,68.16
2023-01-26T02:52:27.067Z,69.13
2023-01-26T02:53:27.000Z,70.25
2023-01-26T02:54:26.976Z,68.80
2023-01-26T02:55:26.958Z,64.29
2023-01-26T02:56:26.937Z,63.97
2023-01-26T02:57:26.937Z,69.61
2023-01-26T02:58:26.892Z,69.13
2023-01-26T02:59:26.870Z,70.09
2023-01-26T03:00:26.858Z,67.19
2023-01-26T03:01:26.830Z,68.32
2023-01-26T03:02:26.839Z,69.29
2023-01-26T03:03:26.787Z,64.94
2023-01-26T03:04:26.769Z,69.29
2023-01-26T03:05:26.756Z,70.74
2023-01-26T03:06:26.743Z,69.29
2023-01-26T03:07:26.735Z,66.55
2023-01-26T03:08:26.684Z,67.19
2023-01-26T03:09:26.664Z,69.93
2023-01-26T03:10:26.650Z,69.13
2023-01-26T03:11:26.625Z,69.13
2023-01-26T03:12:26.632Z,65.74
2023-01-26T03:13:26.580Z,67.51
2023-01-26T03:14:26.558Z,69.45
2023-01-26T03:15:26.533Z,63.81
2023-01-26T03:16:26.607Z,63.16
2023-01-26T03:17:26.534Z,67.51
2023-01-26T03:18:26.471Z,67.84
2023-01-26T03:19:26.451Z,66.71
2023-01-26T03:20:26.427Z,70.74
2023-01-26T03:21:26.404Z,67.84
2023-01-26T03:22:26.415Z,66.23
2023-01-26T03:23:26.365Z,69.77
2023-01-26T03:24:26.343Z,69.13
2023-01-26T03:25:26.320Z,71.87
2023-01-26T03:26:26.304Z,64.94
2023-01-26T03:27:26.306Z,69.93
2023-01-26T03:28:26.259Z,68.16
2023-01-26T03:29:26.239Z,69.93
2023-01-26T03:30:26.238Z,68.16
2023-01-26T03:31:26.256Z,67.68
2023-01-26T03:32:26.204Z,70.25
2023-01-26T03:33:26.158Z,69.61
2023-01-26T03:34:26.144Z,60.59
2023-01-26T03:35:26.118Z,65.42
2023-01-26T03:36:26.092Z,66.71
2023-01-26T03:37:26.100Z,67.68
2023-01-26T03:38:26.049Z,67.35
2023-01-26T03:39:26.044Z,67.03
2023-01-26T03:40:26.016Z,71.87
2023-01-26T03:41:25.991Z,63.81
2023-01-26T03:42:26.039Z,68.16
2023-01-26T03:43:25.950Z,70.74
2023-01-26T03:44:25.928Z,68.00
2023-01-26T03:45:25.909Z,67.84
2023-01-26T03:46:25.975Z,72.83
2023-01-26T03:47:25.899Z,70.90
2023-01-26T03:48:25.851Z,69.13
2023-01-26T03:49:25.832Z,68.96
2023-01-26T03:50:25.809Z,66.23
2023-01-26T03:51:25.817Z,63.97
2023-01-26T03:52:25.781Z,65.90
2023-01-26T03:53:25.779Z,69.13
2023-01-26T03:54:25.730Z,67.03
2023-01-26T03:55:25.713Z,68.80
2023-01-26T03:56:25.703Z,70.42
2023-01-26T03:57:25.700Z,67.51
2023-01-26T03:58:25.652Z,70.09
2023-01-26T03:59:25.635Z,69.77
2023-01-26T04:00:25.621Z,64.94
2023-01-26T04:01:25.593Z,65.74
2023-01-26T04:02:25.689Z,68.64
2023-01-26T04:03:25.576Z,70.90
2023-01-26T04:04:25.531Z,70.58
2023-01-26T04:05:25.525Z,71.87
2023-01-26T04:06:26.503Z,68.96
2023-01-26T04:07:25.495Z,67.68
2023-01-26T04:08:25.445Z,69.93
2023-01-26T04:09:25.442Z,72.51
2023-01-26T04:10:25.408Z,67.84
2023-01-26T04:11:25.382Z,69.45
2023-01-26T04:12:25.369Z,68.80
2023-01-26T04:13:25.370Z,72.99
2023-01-26T04:14:25.324Z,68.64
2023-01-26T04:15:25.309Z,69.61
2023-01-26T04:16:25.417Z,72.99
2023-01-26T04:17:25.293Z,71.06
2023-01-26T04:18:25.250Z,71.87
2023-01-26T04:19:25.232Z,71.54
2023-01-26T04:20:25.209Z,69.93
2023-01-26T04:21:25.189Z,70.74
2023-01-26T04:22:25.166Z,69.61
2023-01-26T04:23:25.176Z,70.25
2023-01-26T04:24:25.209Z,70.74
2023-01-26T04:25:25.106Z,70.09
2023-01-26T04:26:25.091Z,69.93
2023-01-26T04:27:25.065Z,72.35
2023-01-26T04:28:25.073Z,70.09
2023-01-26T04:29:25.024Z,68.48
2023-01-26T04:30:25.024Z,70.09
2023-01-26T04:31:25.023Z,68.00
2023-01-26T04:32:24.966Z,72.19
2023-01-26T04:33:24.967Z,67.68
2023-01-26T04:34:24.930Z,69.13
2023-01-26T04:35:24.907Z,70.25
2023-01-26T04:36:24.889Z,72.35
2023-01-26T04:37:24.860Z,73.64
2023-01-26T04:38:24.873Z,69.29
2023-01-26T04:39:24.819Z,70.90
2023-01-26T04:40:25.814Z,68.80
2023-01-26T04:41:24.788Z,71.22
2023-01-26T04:42:24.763Z,72.83
2023-01-26T04:43:24.768Z,72.35
2023-01-26T04:44:24.727Z,73.48
2023-01-26T04:45:24.702Z,71.54
2023-01-26T04:46:24.685Z,71.70
2023-01-26T04:47:24.669Z,73.96
2023-01-26T04:48:24.668Z,71.22
2023-01-26T04:49:24.619Z,74.12
2023-01-26T04:50:24.607Z,71.70
2023-01-26T04:51:24.581Z,73.32
2023-01-26T04:52:24.562Z,69.13
2023-01-26T04:53:24.572Z,71.06
2023-01-26T04:54:24.522Z,72.51
2023-01-26T04:55:24.501Z,71.54
2023-01-26T04:56:24.482Z,75.89
2023-01-26T04:57:24.469Z,72.19
2023-01-26T04:58:24.468Z,72.83
2023-01-26T04:59:24.425Z,75.41
2023-01-26T05:00:24.408Z,72.19
2023-01-26T05:01:24.427Z,71.22
2023-01-26T05:02:24.362Z,71.54
2023-01-26T05:03:24.373Z,71.06
2023-01-26T05:04:24.341Z,73.80
2023-01-26T05:05:24.318Z,73.80
2023-01-26T05:06:24.313Z,74.12
2023-01-26T05:07:24.267Z,71.87
2023-01-26T05:08:24.278Z,73.48
2023-01-26T05:09:24.234Z,73.96
2023-01-26T05:10:24.218Z,73.80
2023-01-26T05:11:24.209Z,72.35
2023-01-26T05:12:24.180Z,73.80
2023-01-26T05:13:24.188Z,72.67
2023-01-26T05:14:24.134Z,71.54
2023-01-26T05:15:24.110Z,72.83
2023-01-26T05:16:24.121Z,73.32
2023-01-26T05:17:24.074Z,72.35
2023-01-26T05:18:24.088Z,70.42
2023-01-26T05:19:24.037Z,71.06
2023-01-26T05:20:24.014Z,70.58
2023-01-26T05:21:23.997Z,72.83
2023-01-26T05:22:23.983Z,71.70
2023-01-26T05:23:23.989Z,71.87
2023-01-26T05:24:24.030Z,74.93
2023-01-26T05:25:23.912Z,73.15
2023-01-26T05:26:23.891Z,72.35
2023-01-26T05:27:23.875Z,69.77
2023-01-26T05:28:23.880Z,72.35
2023-01-26T05:29:23.828Z,68.96
2023-01-26T05:30:23.821Z,73.96
2023-01-26T05:31:23.807Z,72.19
2023-01-26T05:32:23.774Z,75.25
2023-01-26T05:33:23.773Z,70.42
2023-01-26T05:34:23.730Z,71.22
2023-01-26T05:35:23.712Z,68.00
2023-01-26T05:36:23.707Z,68.32
2023-01-26T05:37:23.667Z,72.03
2023-01-26T05:38:23.678Z,72.51
2023-01-26T05:39:23.631Z,73.80
2023-01-26T05:40:23.610Z,72.51
2023-01-26T05:41:23.587Z,73.64
2023-01-26T05:42:24.208Z,72.51
2023-01-26T05:43:23.576Z,71.87
2023-01-26T05:44:23.528Z,74.44
2023-01-26T05:45:23.506Z,76.86
2023-01-26T05:46:23.487Z,73.48
2023-01-26T05:47:23.474Z,75.73
2023-01-26T05:48:23.472Z,73.80
2023-01-26T05:49:23.434Z,71.54
2023-01-26T05:50:23.404Z,71.87
2023-01-26T05:51:23.391Z,72.99
2023-01-26T05:52:23.366Z,72.51
2023-01-26T05:53:23.374Z,72.19
2023-01-26T05:54:23.324Z,73.15
2023-01-26T05:55:23.298Z,72.67
2023-01-26T05:56:23.281Z,76.22
2023-01-26T05:57:23.267Z,72.67
2023-01-26T05:58:23.260Z,72.51
2023-01-26T05:59:23.219Z,75.73
2023-01-26T06:00:23.203Z,74.12
2023-01-26T06:01:23.183Z,74.77
2023-01-26T06:02:23.193Z,72.19
2023-01-26T06:03:23.163Z,73.32
2023-01-26T06:04:23.135Z,73.32
2023-01-26T06:05:23.096Z,74.93
2023-01-26T06:06:23.081Z,71.70
2023-01-26T06:07:23.053Z,72.35
2023-01-26T06:08:23.057Z,75.57
2023-01-26T06:09:23.021Z,73.96
2023-01-26T06:10:22.991Z,75.09
2023-01-26T06:11:22.967Z,75.09
2023-01-26T06:12:22.944Z,74.93
2023-01-26T06:13:22.946Z,74.93
2023-01-26T06:14:22.900Z,74.28
2023-01-26T06:15:22.903Z,74.28
2023-01-26T06:16:22.890Z,70.42
2023-01-26T06:17:22.837Z,73.32
2023-01-26T06:18:22.838Z,73.48
2023-01-26T06:19:22.797Z,77.34
2023-01-26T06:20:22.794Z,74.93
2023-01-26T06:21:22.755Z,73.32
2023-01-26T06:22:22.748Z,76.05
2023-01-26T06:23:22.732Z,76.54
2023-01-26T06:24:22.752Z,74.77
2023-01-26T06:25:22.667Z,75.25
2023-01-26T06:26:22.642Z,74.93
2023-01-26T06:27:22.624Z,76.05
2023-01-26T06:28:22.634Z,74.77
2023-01-26T06:29:22.581Z,75.57
2023-01-26T06:30:22.558Z,74.93
2023-01-26T06:31:22.665Z,74.28
2023-01-26T06:32:22.524Z,72.83
2023-01-26T06:33:22.534Z,69.61
2023-01-26T06:34:22.486Z,72.99
2023-01-26T06:35:22.465Z,76.70
2023-01-26T06:36:22.443Z,74.60
2023-01-26T06:37:22.423Z,75.09
2023-01-26T06:38:22.431Z,75.25
2023-01-26T06:39:22.382Z,72.83
2023-01-26T06:40:22.359Z,72.67
2023-01-26T06:41:22.341Z,72.19
2023-01-26T06:42:22.322Z,74.93
2023-01-26T06:43:22.328Z,74.12
2023-01-26T06:44:22.298Z,74.93
2023-01-26T06:45:22.266Z,73.48
2023-01-26T06:46:22.337Z,75.25
2023-01-26T06:47:22.217Z,74.77
2023-01-26T06:48:22.204Z,73.96
2023-01-26T06:49:22.199Z,73.48
2023-01-26T06:50:22.156Z,74.28
2023-01-26T06:51:22.149Z,74.60
2023-01-26T06:52:22.161Z,71.70
2023-01-26T06:53:22.104Z,76.38
2023-01-26T06:54:22.097Z,76.86
2023-01-26T06:55:22.067Z,70.58
2023-01-26T06:56:22.035Z,72.67
2023-01-26T06:57:22.012Z,74.12
2023-01-26T06:58:22.013Z,70.09
2023-01-26T06:59:21.991Z,74.60
2023-01-26T07:00:21.944Z,74.93
2023-01-26T07:01:21.987Z,75.89
2023-01-26T07:02:21.965Z,74.12
2023-01-26T07:03:21.882Z,71.70
2023-01-26T07:04:21.892Z,72.19
2023-01-26T07:05:21.840Z,72.67
2023-01-26T07:06:21.821Z,74.60
2023-01-26T07:07:21.801Z,76.38
2023-01-26T07:08:21.780Z,73.48
2023-01-26T07:09:21.784Z,74.93
2023-01-26T07:10:21.747Z,74.28
2023-01-26T07:11:21.722Z,71.54
2023-01-26T07:12:21.698Z,75.73
2023-01-26T07:13:21.682Z,74.60
2023-01-26T07:14:21.683Z,75.73
2023-01-26T07:15:21.641Z,73.64
2023-01-26T07:16:21.637Z,75.25
2023-01-26T07:17:21.607Z,72.51
2023-01-26T07:18:21.572Z,76.22
2023-01-26T07:19:21.583Z,74.44
2023-01-26T07:20:21.532Z,74.44
2023-01-26T07:21:22.521Z,72.35
2023-01-26T07:22:21.495Z,69.45
2023-01-26T07:23:21.471Z,72.83
2023-01-26T07:24:21.502Z,76.54
2023-01-26T07:25:21.430Z,75.89
2023-01-26T07:26:21.420Z,75.25
2023-01-26T07:27:21.404Z,72.83
2023-01-26T07:28:21.371Z,74.28
2023-01-26T07:29:21.369Z,72.19
2023-01-26T07:30:21.324Z,73.96
2023-01-26T07:31:21.441Z,72.19
2023-01-26T07:32:21.287Z,73.32
2023-01-26T07:33:21.263Z,70.09
2023-01-26T07:34:21.269Z,70.58
2023-01-26T07:35:21.218Z,74.28
2023-01-26T07:36:21.198Z,72.83
2023-01-26T07:37:21.179Z,74.93
2023-01-26T07:38:21.161Z,71.06
2023-01-26T07:39:21.157Z,75.41
2023-01-26T07:40:21.118Z,74.44
2023-01-26T07:41:21.094Z,73.80
2023-01-26T07:42:21.071Z,72.19
2023-01-26T07:43:21.053Z,73.15
2023-01-26T07:44:21.056Z,72.03
2023-01-26T07:45:21.014Z,71.06
2023-01-26T07:46:21.048Z,73.96
2023-01-26T07:47:20.965Z,73.80
2023-01-26T07:48:20.944Z,71.54
2023-01-26T07:49:20.954Z,72.03
2023-01-26T07:50:20.905Z,73.80
2023-01-26T07:51:20.890Z,74.77
2023-01-26T07:52:20.862Z,72.67
2023-01-26T07:53:20.863Z,73.96
2023-01-26T07:54:20.846Z,74.28
2023-01-26T07:55:20.857Z,73.64
2023-01-26T07:56:20.777Z,73.48
2023-01-26T07:57:20.755Z,74.28
2023-01-26T07:58:20.736Z,74.12
2023-01-26T07:59:20.737Z,73.64
2023-01-26T08:00:20.695Z,73.96
2023-01-26T08:01:20.697Z,71.54
2023-01-26T08:02:20.651Z,75.25
2023-01-26T08:03:20.627Z,75.25
2023-01-26T08:04:20.636Z,72.83
2023-01-26T08:05:20.593Z,72.19
2023-01-26T08:06:20.568Z,72.99
2023-01-26T08:07:20.545Z,73.32
2023-01-26T08:08:20.534Z,70.42
2023-01-26T08:09:20.531Z,71.22
2023-01-26T08:10:20.484Z,74.93
2023-01-26T08:11:20.466Z,73.80
2023-01-26T08:12:20.445Z,73.80
2023-01-26T08:13:33.758Z,74.12
2023-01-26T08:14:22.431Z,74.28
2023-01-26T08:15:20.383Z,75.09
2023-01-26T08:16:20.425Z,75.25
2023-01-26T08:17:20.343Z,72.03
2023-01-26T08:18:20.327Z,72.83
2023-01-26T08:19:20.346Z,68.48
2023-01-26T08:20:20.290Z,72.83
2023-01-26T08:21:20.268Z,74.77
2023-01-26T08:22:20.249Z,74.28
2023-01-26T08:23:20.223Z,73.32
2023-01-26T08:24:20.279Z,73.32
2023-01-26T08:25:20.187Z,75.25
2023-01-26T08:26:20.288Z,77.02
2023-01-26T08:27:20.144Z,74.28
2023-01-26T08:28:21.248Z,76.38
2023-01-26T08:29:21.129Z,73.96
2023-01-26T08:30:20.085Z,71.54
2023-01-26T08:31:20.265Z,73.64
2023-01-26T08:32:20.052Z,75.41
2023-01-26T08:33:20.030Z,72.83
2023-01-26T08:34:20.032Z,72.19
2023-01-26T08:35:19.986Z,74.12
2023-01-26T08:36:22.324Z,70.42
2023-01-26T08:37:20.942Z,74.60
2023-01-26T08:38:19.919Z,76.05
2023-01-26T08:39:19.923Z,76.05
2023-01-26T08:40:19.879Z,75.57
2023-01-26T08:41:19.858Z,73.15
2023-01-26T08:42:21.843Z,73.64
2023-01-26T08:43:19.835Z,72.03
2023-01-26T08:44:19.827Z,74.93
2023-01-26T08:45:19.829Z,73.64
2023-01-26T08:46:19.766Z,76.54
2023-01-26T08:47:19.743Z,72.51
2023-01-26T08:48:19.715Z,72.35
2023-01-26T08:49:19.727Z,76.05
2023-01-26T08:50:19.685Z,71.22
2023-01-26T08:51:19.669Z,74.28
2023-01-26T08:52:19.646Z,73.80
2023-01-26T08:53:19.622Z,74.28
2023-01-26T08:54:19.635Z,75.25
2023-01-26T08:55:19.585Z,76.54
2023-01-26T08:56:19.569Z,74.77
2023-01-26T08:57:19.550Z,75.25
2023-01-26T08:58:19.527Z,73.96
2023-01-26T08:59:19.527Z,74.44
2023-01-26T09:00:19.484Z,74.77
2023-01-26T09:01:19.605Z,69.93
2023-01-26T09:02:19.509Z,74.60
2023-01-26T09:03:19.497Z,73.64
2023-01-26T09:04:19.440Z,72.35
2023-01-26T09:05:19.384Z,74.77
2023-01-26T09:06:19.362Z,74.77
2023-01-26T09:07:20.355Z,72.35
2023-01-26T09:08:19.328Z,74.93
2023-01-26T09:09:20.106Z,69.77
2023-01-26T09:10:19.284Z,73.80
2023-01-26T09:11:19.265Z,72.83
2023-01-26T09:12:19.241Z,74.60
2023-01-26T09:13:19.243Z,73.15
2023-01-26T09:14:19.233Z,76.54
2023-01-26T09:15:19.192Z,75.73
2023-01-26T09:16:19.212Z,75.89
2023-01-26T09:17:19.152Z,77.34
2023-01-26T09:18:19.126Z,73.48
2023-01-26T09:19:19.143Z,70.42
2023-01-26T09:20:19.096Z,72.83
2023-01-26T09:21:19.071Z,74.28
2023-01-26T09:22:19.058Z,74.93
2023-01-26T09:23:19.040Z,72.51
2023-01-26T09:24:19.069Z,74.77
2023-01-26T09:25:18.998Z,74.28
2023-01-26T09:26:18.978Z,70.74
2023-01-26T09:27:19.250Z,72.99
2023-01-26T09:28:19.035Z,70.90
2023-01-26T09:29:19.060Z,75.89
2023-01-26T09:30:18.955Z,75.57
2023-01-26T09:31:19.018Z,73.15
2023-01-26T09:32:18.868Z,72.67
2023-01-26T09:33:18.848Z,70.25
2023-01-26T09:34:18.859Z,71.22
2023-01-26T09:35:19.135Z,76.54
2023-01-26T09:36:18.888Z,72.19
2023-01-26T09:37:18.772Z,74.28
2023-01-26T09:38:18.760Z,71.54
2023-01-26T09:39:18.760Z,70.74
2023-01-26T09:40:18.717Z,75.89
2023-01-26T09:41:18.701Z,72.51
2023-01-26T09:42:18.685Z,72.35
2023-01-26T09:43:18.661Z,73.48
2023-01-26T09:44:18.672Z,73.32
2023-01-26T09:45:18.618Z,73.48
2023-01-26T09:46:18.653Z,76.05
2023-01-26T09:47:18.590Z,74.77
2023-01-26T09:48:18.570Z,70.25
2023-01-26T09:49:18.577Z,70.42
2023-01-26T09:50:18.532Z,73.15
2023-01-26T09:51:18.514Z,74.60
2023-01-26T09:52:18.494Z,73.48
2023-01-26T09:53:18.472Z,69.29
2023-01-26T09:54:18.482Z,75.89
2023-01-26T09:55:18.610Z,72.19
2023-01-26T09:56:18.421Z,75.41
2023-01-26T09:57:18.401Z,74.44
2023-01-26T09:58:18.377Z,72.35
2023-01-26T09:59:18.391Z,70.74
2023-01-26T10:00:18.347Z,71.06
2023-01-26T10:01:18.362Z,72.67
2023-01-26T10:02:18.379Z,74.77
2023-01-26T10:03:18.291Z,74.93
2023-01-26T10:04:18.303Z,73.64
2023-01-26T10:05:18.247Z,73.96
2023-01-26T10:06:18.240Z,74.60
2023-01-26T10:07:18.211Z,75.41
2023-01-26T10:08:18.192Z,74.77
2023-01-26T10:09:18.180Z,71.87
2023-01-26T10:10:18.181Z,74.44
2023-01-26T10:11:18.147Z,72.19
2023-01-26T10:12:18.118Z,74.77
2023-01-26T10:13:18.110Z,71.06
2023-01-26T10:14:18.083Z,71.70
2023-01-26T10:15:18.089Z,74.77
2023-01-26T10:16:18.049Z,74.28
2023-01-26T10:17:18.038Z,75.89
2023-01-26T10:18:18.012Z,73.48
2023-01-26T10:19:17.989Z,74.44
2023-01-26T10:20:17.999Z,73.80
2023-01-26T10:21:17.950Z,71.54
2023-01-26T10:22:17.930Z,72.03
2023-01-26T10:23:18.922Z,74.28
2023-01-26T10:24:17.957Z,73.32
2023-01-26T10:25:17.904Z,74.28
2023-01-26T10:26:17.862Z,73.15
2023-01-26T10:27:17.846Z,73.80
2023-01-26T10:28:17.816Z,72.83
2023-01-26T10:29:18.804Z,71.22
2023-01-26T10:30:17.816Z,72.67
2023-01-26T10:31:17.893Z,75.09
2023-01-26T10:32:17.759Z,72.99
2023-01-26T10:33:17.747Z,74.28
2023-01-26T10:34:17.717Z,71.22
2023-01-26T10:35:17.727Z,74.60
2023-01-26T10:36:17.677Z,75.89
2023-01-26T10:37:17.658Z,74.60
2023-01-26T10:38:17.639Z,73.64
2023-01-26T10:39:17.666Z,74.60
2023-01-26T10:40:17.634Z,73.80
2023-01-26T10:41:17.585Z,73.64
2023-01-26T10:42:17.568Z,70.74
2023-01-26T10:43:17.549Z,68.48
2023-01-26T10:44:17.531Z,72.19
2023-01-26T10:45:17.545Z,74.77
2023-01-26T10:46:17.534Z,73.32
2023-01-26T10:47:17.491Z,72.51
2023-01-26T10:48:17.458Z,74.12
2023-01-26T10:49:17.449Z,73.15
2023-01-26T10:50:17.454Z,73.96
2023-01-26T10:51:17.405Z,70.09
2023-01-26T10:52:17.448Z,74.77
2023-01-26T10:53:17.376Z,74.93
2023-01-26T10:54:17.350Z,74.12
2023-01-26T10:55:17.754Z,76.05
2023-01-26T10:56:17.419Z,73.32
2023-01-26T10:57:17.305Z,74.44
2023-01-26T10:58:17.274Z,74.12
2023-01-26T10:59:17.257Z,75.41
2023-01-26T11:00:17.303Z,73.80
2023-01-26T11:01:17.256Z,74.44
2023-01-26T11:02:17.203Z,75.09
2023-01-26T11:03:17.190Z,75.73
2023-01-26T11:04:17.166Z,72.83
2023-01-26T11:05:17.172Z,74.77
2023-01-26T11:06:17.128Z,72.03
2023-01-26T11:07:17.112Z,74.28
2023-01-26T11:08:17.092Z,76.22
2023-01-26T11:09:17.079Z,75.25
2023-01-26T11:10:17.161Z,73.80
2023-01-26T11:11:17.069Z,74.44
2023-01-26T11:12:17.024Z,74.93
2023-01-26T11:13:17.001Z,74.28
2023-01-26T11:14:17.002Z,75.57
2023-01-26T11:15:16.982Z,73.15
2023-01-26T11:16:17.037Z,74.12
2023-01-26T11:17:16.930Z,74.44
2023-01-26T11:18:16.913Z,75.09
2023-01-26T11:19:16.895Z,74.44
2023-01-26T11:20:16.907Z,72.51
2023-01-26T11:21:16.862Z,73.32
2023-01-26T11:22:16.842Z,71.06
2023-01-26T11:23:16.850Z,75.41
2023-01-26T11:24:16.855Z,75.09
2023-01-26T11:25:16.816Z,72.67
2023-01-26T11:26:16.763Z,72.35
2023-01-26T11:27:16.747Z,72.35
2023-01-26T11:28:16.726Z,72.83
2023-01-26T11:29:16.705Z,75.57
2023-01-26T11:30:16.711Z,75.89
2023-01-26T11:31:16.785Z,75.41
2023-01-26T11:32:16.651Z,72.67
2023-01-26T11:33:16.629Z,75.09
2023-01-26T11:34:16.617Z,74.60
2023-01-26T11:35:16.623Z,75.25
2023-01-26T11:36:16.575Z,74.44
2023-01-26T11:37:16.560Z,73.32
2023-01-26T11:38:16.543Z,74.60
2023-01-26T11:39:16.520Z,74.60
2023-01-26T11:40:16.528Z,74.28
2023-01-26T11:41:16.487Z,73.15
2023-01-26T11:42:16.466Z,74.60
2023-01-26T11:43:16.451Z,73.64
2023-01-26T11:44:16.427Z,75.25
2023-01-26T11:45:16.462Z,74.12
2023-01-26T11:46:16.433Z,73.80
2023-01-26T11:47:16.400Z,74.77
2023-01-26T11:48:16.359Z,72.51
2023-01-26T11:49:16.342Z,75.41
2023-01-26T11:50:16.325Z,72.83
2023-01-26T11:51:16.321Z,70.42
2023-01-26T11:52:16.301Z,74.93
2023-01-26T11:53:17.200Z,75.57
2023-01-26T11:54:16.304Z,75.89
2023-01-26T11:55:16.267Z,71.38
2023-01-26T11:56:16.196Z,73.64
2023-01-26T11:57:16.188Z,74.28
2023-01-26T11:58:16.162Z,76.54
2023-01-26T11:59:16.146Z,74.77
2023-01-26T12:00:28.936Z,74.28
2023-01-26T12:01:18.103Z,66.87
2023-01-26T12:02:16.121Z,72.03
2023-01-26T12:03:16.080Z,71.38
2023-01-26T12:04:16.043Z,69.77
2023-01-26T12:05:16.052Z,75.41
2023-01-26T12:06:16.011Z,69.29
2023-01-26T12:07:15.998Z,75.25
2023-01-26T12:08:15.969Z,72.83
2023-01-26T12:09:15.954Z,72.03
2023-01-26T12:10:15.957Z,70.90
2023-01-26T12:11:16.021Z,70.74
2023-01-26T12:12:16.515Z,75.41
2023-01-26T12:13:15.891Z,71.70
2023-01-26T12:14:15.864Z,73.48
2023-01-26T12:15:15.871Z,70.90
2023-01-26T12:16:15.841Z,76.54
2023-01-26T12:17:18.548Z,68.64
2023-01-26T12:18:16.788Z,72.51
2023-01-26T12:19:15.766Z,73.48
2023-01-26T12:20:15.867Z,70.74
2023-01-26T12:21:15.734Z,74.28
2023-01-26T12:22:15.757Z,73.96
2023-01-26T12:23:15.696Z,73.15
2023-01-26T12:24:36.025Z,72.99
2023-01-26T12:25:19.814Z,72.19
2023-01-26T12:26:16.684Z,72.83
2023-01-26T12:27:15.620Z,75.57
2023-01-26T12:28:15.605Z,73.80
2023-01-26T12:29:15.585Z,71.38
2023-01-26T12:30:15.563Z,70.90
2023-01-26T12:31:15.695Z,73.80
2023-01-26T12:32:15.525Z,74.28
2023-01-26T12:33:15.519Z,75.89
2023-01-26T12:34:15.488Z,76.38
2023-01-26T12:35:15.471Z,74.28
2023-01-26T12:36:15.481Z,72.03
2023-01-26T12:37:15.440Z,73.15
2023-01-26T12:38:18.128Z,71.22
2023-01-26T12:39:16.396Z,68.96
2023-01-26T12:40:15.377Z,70.25
2023-01-26T12:41:15.392Z,75.09
2023-01-26T12:42:15.349Z,73.15
2023-01-26T12:43:15.323Z,74.44
2023-01-26T12:44:15.307Z,72.03
2023-01-26T12:45:17.559Z,73.15
2023-01-26T12:46:15.332Z,69.29
2023-01-26T12:47:15.286Z,75.09
2023-01-26T12:48:15.226Z,73.15
2023-01-26T12:49:15.211Z,74.93
2023-01-26T12:50:15.769Z,76.05
2023-01-26T12:51:15.202Z,72.51
2023-01-26T12:52:15.158Z,71.54